Dauntless Aviation
Greetings, Guest! To participate, [sign up for a free account] or [log in]
Airports North America United States Colorado
98CO

NCMC HELIPORT

GREELEY, CO, USA

Airport Info

Location

Latitude / Longitude: 40°24'53"N / 104°42'28"W
  40°24.9'N / 104°42.4667'W
  40.4150 / -104.7078
Elevation: 4882 ft. (estimated)
Variation: 12E (1985)
From city: 00 miles N of GREELEY, CO

Operations

Facility use: Private
Sectional chart: DENVER
Control tower: no
Boundary ARTCC: DENVER
FSS: DENVER [1-800-WX-BRIEF]
Segmented circle: no

Communications

Nearby radio navigation aids

VOR radial/distance VOR name Freq Var
GLL 233oT/8.9 GILL VORTAC 114.20 13E
DVV 353oT/31.5 MILE HIGH VORTAC 114.70 11E
BJC 33oT/36.1 JEFFCO VOR/DME 115.40 11E
DEN 357oT/36.2 DENVER VOR/DME 117.90 11E
 
NDB name Hdg/Dist Freq Var ID

Services

Runway Information

Helipad H1

Dimensions: 40 x 40 ft.
Surface: PORTLAND CEMENT CONCRETE,NO SPECIAL SURFACE TREATMENT
 

Additional Remarks

Instrument Procedures

No published instrument procedures available
Topographic chart at:
Satellite photo at:
Airport distance calculator
From:
Weather Reports

METAR

KGXY
4.2nm NE
KGXY 291235Z AUTO 31003KT 10SM CLR 15/11 A3023 RMK AO1
KFNL
14.3nm W
KFNL 291235Z AUTO 01005KT 10SM CLR 17/13 A3026 RMK AO1
KLMO
25.8nm SW
KLMO 291234Z AUTO 00000KT 10SM CLR 18/14 A3026 RMK AO2 T01820144
KEIK
28.6nm S
KEIK 291235Z AUTO 00000KT 10SM CLR 16/14 A3024 RMK AO2 T01550136
KBDU
33.3nm SW
KBDU 291235Z AUTO 00000KT 10SM CLR 17/15 A3025 RMK AO2
KDEN
35.0nm SE
KDEN 291153Z 26007KT 10SM FEW130 SCT220 17/13 A3024 RMK AO2 SLP169 T01670133 10194 20156 55002

TAF

KDEN
35.0nm SE
KDEN 291130Z 2912/3018 28006KT P6SM SCT140 SCT200 FM291500 VRB05KT P6SM SCT140 BKN200 FM291800 08008KT P6SM SCT080 SCT140 BKN200 FM292000 08011KT P6SM VCTS SCT060CB BKN080 TEMPO 2921/3001 VRB20G30KT 5SM TSRA BKN050CB FM300100 06008KT 5SM TSRA BKN040CB OVC050 TEMPO 3001/3005 3SM +SHRA OVC030 FM300500 02010KT 3SM SHRA BKN030 OVC050 TEMPO 3005/3009 5SM -TSRA OVC050CB FM300900 36007KT P6SM VCTS SCT030CB OVC050 TEMPO 3009/3013 5SM SHRA OVC030 FM301300 36007KT P6SM SCT030 BKN050 TEMPO 3013/3017 -SHRA BKN030
KBJC
35.3nm S
KBJC 291130Z 2912/3012 32005KT P6SM SCT120 SCT200 FM291500 VRB04KT P6SM SCT120 BKN200 FM291700 03007KT P6SM SCT080 BKN140 FM292000 05010KT P6SM VCTS SCT060CB BKN080 TEMPO 2921/3001 VRB20G30KT 5SM TSRA BKN050CB FM300100 06008KT 5SM TSRA BKN040CB OVC050 TEMPO 3001/3005 3SM +SHRA OVC030 FM300500 02010KT 3SM SHRA BKN030 OVC050 TEMPO 3005/3009 5SM -TSRA OVC050CB FM300900 36007KT P6SM VCTS SCT030CB OVC050 TEMPO 3009/3012 5SM SHRA OVC030
Safelog

 

Dauntless Aviation

© 2007-2014 Dauntless Aviation, all rights reserved
Information provided via PilotNav comes from a variety of official and unofficial data sources. As errors are possible, do not use PilotNav for primary flight planning purposes. Verify any information that you receive via PilotNav with current and canonical charts and other official documents. The material in this database is subject to database copyrights held by Dauntless Aviation and may not be copied without the express permission of Dauntless Aviation - licenses for use of part of all of this data are available for purchase; enquire via the Dauntless Aviation helpdesk. A number of mechanisms and markers exist in the database to protect against and identify infringement / copyright. Automated queries against this website are stictly prohibited, and all activity is logged and analyzed.